Time;durP1;ratioP1;P1;durP2;ratioP2;P2;SDS_P1;SDS_P2;PMS_P1;PMS_P2;Temp;Humidity;BMP_temperature;BMP_pressure;BME280_temperature;BME280_humidity;BME280_pressure;Samples;Min_cycle;Max_cycle;Signal;HPM_P1;HPM_P2
2021/06/13 00:00:27;;;;;;;7.47;4.40;;;;;;;16.34;66.39;102390.75;4953493;28;20047;-86
2021/06/13 00:02:53;;;;;;;8.45;4.75;;;;;;;16.38;66.54;102402.06;4951703;29;20052;-85
2021/06/13 00:05:28;;;;;;;10.32;4.93;;;;;;;16.39;66.88;102402.00;4958846;23;20047;-85
2021/06/13 00:08:07;;;;;;;10.35;5.03;;;;;;;15.80;66.76;102310.94;4960559;23;20055;31
2021/06/13 00:10:59;;;;;;;7.25;4.63;;;;;;;16.38;66.73;102416.09;4956257;23;20063;-83
2021/06/13 00:13:27;;;;;;;7.00;4.57;;;;;;;16.35;67.21;102410.09;4928207;29;20063;-85
2021/06/13 00:15:54;;;;;;;11.40;5.68;;;;;;;16.33;67.08;102408.38;4912665;29;20048;-85
2021/06/13 00:18:21;;;;;;;8.85;4.93;;;;;;;16.21;67.31;102400.00;4929771;29;20052;-84
2021/06/13 00:20:53;;;;;;;10.38;5.28;;;;;;;16.26;67.49;102416.50;4929272;29;20066;-85
2021/06/13 00:23:20;;;;;;;11.75;6.35;;;;;;;16.11;67.65;102396.84;4930716;29;20056;-85
2021/06/13 00:25:48;;;;;;;7.88;5.47;;;;;;;16.07;67.49;102382.06;4917306;29;20093;-85
2021/06/13 00:28:22;;;;;;;9.95;5.25;;;;;;;16.20;67.65;102396.53;4925080;29;20095;-84
2021/06/13 00:30:57;;;;;;;9.43;5.13;;;;;;;16.17;67.76;102404.53;4941330;29;20059;-85
2021/06/13 00:33:27;;;;;;;7.80;5.07;;;;;;;16.13;68.12;102408.19;4924339;29;20055;-85
2021/06/13 00:35:55;;;;;;;9.10;4.70;;;;;;;16.11;67.83;102405.63;4926631;29;20056;-84
2021/06/13 00:38:26;;;;;;;9.10;4.90;;;;;;;16.13;67.75;102406.41;4941101;29;20040;-82
2021/06/13 00:41:06;;;;;;;9.32;5.00;;;;;;;16.15;67.86;102396.69;4917395;29;20063;-81
2021/06/13 00:43:32;;;;;;;12.43;6.47;;;;;;;16.09;68.42;102402.16;4926676;29;20075;-84
2021/06/13 00:45:58;;;;;;;8.27;5.13;;;;;;;16.14;67.84;102399.38;4928273;29;20111;-84
2021/06/13 00:48:27;;;;;;;9.73;5.72;;;;;;;16.12;67.96;102403.81;4928322;29;20048;-85
2021/06/13 00:50:59;;;;;;;9.50;5.15;;;;;;;15.98;68.40;102399.03;4910283;29;20120;-85
2021/06/13 00:53:29;;;;;;;10.32;5.60;;;;;;;16.03;68.48;102404.13;4926035;29;20079;-85
2021/06/13 00:55:56;;;;;;;8.73;5.00;;;;;;;15.98;68.63;102407.78;4925923;29;20051;-86
2021/06/13 00:58:26;;;;;;;11.73;5.65;;;;;;;16.04;68.87;102405.84;4928931;29;20048;-85
2021/06/13 01:00:57;;;;;;;9.18;5.78;;;;;;;16.01;68.45;102409.47;4930407;29;20052;-81
2021/06/13 01:03:23;;;;;;;8.65;5.72;;;;;;;15.83;68.20;102371.44;4922746;23;20059;-84
2021/06/13 01:05:57;;;;;;;12.00;5.85;;;;;;;16.05;68.12;102399.69;4949764;29;20082;-84
2021/06/13 01:09:12;;;;;;;9.00;5.78;;;;;;;16.06;68.12;102410.16;4956054;23;20063;-81
2021/06/13 01:12:03;;;;;;;6.53;4.70;;;;;;;16.03;67.46;102407.66;4910384;29;20076;-80
2021/06/13 01:15:13;;;;;;;8.32;4.93;;;;;;;15.96;67.16;102408.75;4942809;29;20060;-85
2021/06/13 01:17:50;;;;;;;8.68;4.18;;;;;;;15.90;67.31;102417.72;4941493;29;20048;-85
2021/06/13 01:20:42;;;;;;;7.47;4.13;;;;;;;15.82;66.58;102415.34;4943780;29;20059;-85
2021/06/13 01:23:46;;;;;;;4.57;3.60;;;;;;;15.73;67.00;102409.50;4926898;29;20063;-85
2021/06/13 01:26:37;;;;;;;8.23;4.20;;;;;;;15.69;66.68;102406.94;4943470;29;20477;-85
2021/06/13 01:29:15;;;;;;;6.32;3.45;;;;;;;15.66;66.45;102401.78;4949547;29;20048;-85
2021/06/13 01:31:58;;;;;;;5.18;3.35;;;;;;;15.65;66.19;102413.22;4953741;23;20047;-85
2021/06/13 01:35:00;;;;;;;4.88;3.25;;;;;;;15.51;66.30;102394.38;4947824;29;20052;-84
2021/06/13 01:37:33;;;;;;;6.28;3.30;;;;;;;15.51;66.41;102413.69;4949841;29;20059;-84
2021/06/13 01:40:30;;;;;;;5.80;3.67;;;;;;;15.47;66.48;102413.81;4947949;29;20051;-84
2021/06/13 01:43:08;;;;;;;5.88;3.03;;;;;;;15.39;66.41;102400.03;4952605;23;20076;-86
2021/06/13 01:45:40;;;;;;;6.97;3.45;;;;;;;15.40;66.57;102418.38;4944007;29;20055;-84
2021/06/13 01:48:12;;;;;;;7.53;3.13;;;;;;;15.37;66.87;102414.09;4939618;29;20074;-86
2021/06/13 01:50:39;;;;;;;6.03;3.13;;;;;;;15.30;66.98;102411.72;4952197;29;20055;-84
2021/06/13 01:53:11;;;;;;;5.53;3.15;;;;;;;15.39;67.05;102414.03;4956232;29;20044;-85
2021/06/13 01:55:37;;;;;;;5.38;3.65;;;;;;;15.32;67.43;102416.00;4958941;28;20044;-81
2021/06/13 01:58:06;;;;;;;6.60;3.67;;;;;;;15.17;68.12;102406.81;4952033;29;20051;-82
2021/06/13 02:00:35;;;;;;;7.88;3.63;;;;;;;15.13;68.57;102414.84;4959532;29;20062;-83
2021/06/13 02:03:04;;;;;;;6.95;3.28;;;;;;;15.14;68.35;102409.53;4948427;29;20044;-86
2021/06/13 02:05:32;;;;;;;7.38;3.53;;;;;;;15.13;68.18;102393.81;4922729;29;20062;-85
2021/06/13 02:07:59;;;;;;;7.93;3.42;;;;;;;15.14;68.55;102401.63;4939064;29;20051;-86
2021/06/13 02:10:28;;;;;;;5.30;3.30;;;;;;;15.15;68.61;102403.38;4938851;29;20051;-86
2021/06/13 02:12:55;;;;;;;7.13;3.88;;;;;;;15.02;69.16;102394.97;4939883;29;20148;-85
2021/06/13 02:15:29;;;;;;;5.93;3.70;;;;;;;15.04;68.77;102402.84;4939218;29;20047;-85
2021/06/13 02:17:56;;;;;;;5.07;3.50;;;;;;;15.10;68.83;102418.44;4940012;29;20055;-84
2021/06/13 02:20:28;;;;;;;5.47;3.10;;;;;;;15.10;68.89;102412.28;4940691;29;20044;-86
2021/06/13 02:22:55;;;;;;;5.45;3.58;;;;;;;15.13;68.71;102415.69;4938707;29;20048;-85
2021/06/13 02:25:24;;;;;;;7.03;3.85;;;;;;;15.02;69.15;102407.28;4921820;29;20047;-85
2021/06/13 02:27:59;;;;;;;6.10;3.47;;;;;;;14.97;68.95;102410.03;4937806;29;20183;-85
2021/06/13 02:30:28;;;;;;;5.85;3.75;;;;;;;14.85;69.74;102416.50;4921441;29;20489;-85
2021/06/13 02:32:57;;;;;;;7.57;3.65;;;;;;;14.93;69.48;102424.19;4938831;29;20059;-85
2021/06/13 02:35:27;;;;;;;6.60;4.65;;;;;;;14.92;69.43;102426.88;4939372;29;20059;-85
2021/06/13 02:37:56;;;;;;;6.22;3.72;;;;;;;15.04;69.08;102421.25;4941697;29;20052;-86
2021/06/13 02:40:23;;;;;;;7.82;4.10;;;;;;;15.02;69.39;102425.69;4945791;29;20051;-84
2021/06/13 02:42:55;;;;;;;6.53;3.67;;;;;;;15.05;68.97;102421.19;4955055;28;20055;-83
2021/06/13 02:45:22;;;;;;;5.10;3.10;;;;;;;15.01;68.99;102418.69;4952764;29;20079;-82
2021/06/13 02:47:49;;;;;;;6.70;3.10;;;;;;;14.95;69.10;102408.34;4959324;28;20079;-84
2021/06/13 02:50:20;;;;;;;6.50;3.40;;;;;;;15.03;69.11;102420.38;4959428;28;20109;-80
2021/06/13 02:52:50;;;;;;;7.00;3.80;;;;;;;14.92;69.49;102418.97;4959196;28;20035;-82
2021/06/13 02:55:19;;;;;;;6.60;3.58;;;;;;;14.86;69.67;102414.75;4959617;28;20048;-80
2021/06/13 02:57:58;;;;;;;5.57;3.30;;;;;;;14.80;69.71;102420.19;4959397;29;20032;-82
2021/06/13 03:00:26;;;;;;;5.97;3.13;;;;;;;14.75;69.60;102415.06;4942879;29;20169;-82
2021/06/13 03:02:55;;;;;;;6.35;3.40;;;;;;;14.78;69.69;102421.97;4960347;29;20043;-84
2021/06/13 03:05:25;;;;;;;4.80;3.35;;;;;;;14.72;69.37;102410.75;4962354;29;20031;-84
2021/06/13 03:07:53;;;;;;;6.18;3.22;;;;;;;14.71;69.91;102427.41;4946505;29;20047;-85
2021/06/13 03:10:21;;;;;;;4.85;3.30;;;;;;;14.69;69.95;102428.38;4940505;29;20386;-85
2021/06/13 03:12:48;;;;;;;7.95;3.38;;;;;;;14.71;69.69;102439.72;4940209;29;20106;-85
2021/06/13 03:15:15;;;;;;;6.45;3.15;;;;;;;14.64;70.30;102444.22;4940409;29;20055;-85
2021/06/13 03:17:44;;;;;;;6.50;3.38;;;;;;;14.63;70.17;102442.50;4941104;29;20103;-84
2021/06/13 03:20:11;;;;;;;6.10;3.50;;;;;;;14.59;70.28;102448.75;4940664;29;20047;-86
2021/06/13 03:22:39;;;;;;;5.65;3.45;;;;;;;14.34;70.33;102396.00;4938702;29;20050;-85
2021/06/13 03:25:07;;;;;;;5.97;2.90;;;;;;;14.58;70.33;102439.97;4940733;29;20043;-83
2021/06/13 03:27:34;;;;;;;5.68;2.97;;;;;;;14.51;70.52;102424.44;4938866;29;20070;-85
2021/06/13 03:30:01;;;;;;;5.88;3.13;;;;;;;14.48;69.86;102416.66;4939384;29;20048;-85
2021/06/13 03:32:27;;;;;;;9.38;3.03;;;;;;;14.49;70.07;102432.38;4939940;29;20088;-85
2021/06/13 03:34:54;;;;;;;6.57;3.20;;;;;;;14.61;70.27;102444.31;4943502;29;20074;-83
2021/06/13 03:37:21;;;;;;;8.15;3.88;;;;;;;14.63;70.09;102445.13;4962204;29;20048;-84
2021/06/13 03:39:48;;;;;;;6.15;3.78;;;;;;;14.63;70.39;102447.75;4962128;28;20059;-85
2021/06/13 03:42:17;;;;;;;5.97;3.75;;;;;;;14.61;70.33;102446.94;4962341;28;20050;-81
2021/06/13 03:44:45;;;;;;;5.47;3.65;;;;;;;14.61;70.44;102448.69;4959174;29;20059;-83
2021/06/13 03:47:15;;;;;;;6.35;3.63;;;;;;;14.56;70.37;102444.44;4941545;29;20047;-85
2021/06/13 03:49:43;;;;;;;7.45;3.75;;;;;;;14.54;70.67;102455.91;4941117;29;20047;-85
2021/06/13 03:52:12;;;;;;;7.10;4.00;;;;;;;14.39;70.65;102425.63;4924633;29;20441;-85
2021/06/13 03:54:39;;;;;;;5.55;3.58;;;;;;;14.48;70.54;102449.03;4941592;29;20392;-85
2021/06/13 03:57:07;;;;;;;6.63;4.13;;;;;;;14.50;70.51;102451.63;4941575;29;20051;-85
2021/06/13 03:59:35;;;;;;;5.55;3.22;;;;;;;14.53;70.39;102468.16;4942724;29;20054;-84
2021/06/13 04:02:04;;;;;;;8.05;3.53;;;;;;;14.54;70.42;102472.53;4952981;29;20121;-83
2021/06/13 04:04:38;;;;;;;6.15;3.60;;;;;;;14.45;70.76;102472.75;4936242;29;20342;-84
2021/06/13 04:07:07;;;;;;;5.25;3.58;;;;;;;14.34;70.72;102456.41;4952583;29;20087;-84
2021/06/13 04:09:33;;;;;;;5.72;4.20;;;;;;;14.49;70.83;102481.41;4949965;29;20051;-85
2021/06/13 04:12:01;;;;;;;6.45;4.03;;;;;;;14.51;70.59;102483.13;4948925;29;20059;-86
2021/06/13 04:14:28;;;;;;;6.97;3.63;;;;;;;14.42;70.50;102462.34;4949095;29;20111;-85
2021/06/13 04:16:55;;;;;;;4.70;3.60;;;;;;;14.58;70.34;102491.69;4949832;29;20055;-85
2021/06/13 04:19:21;;;;;;;6.43;3.92;;;;;;;14.64;69.97;102498.56;4946145;29;20055;-85
2021/06/13 04:21:48;;;;;;;5.97;3.17;;;;;;;14.56;69.69;102477.72;4943140;29;20176;-85
2021/06/13 04:24:21;;;;;;;4.75;3.38;;;;;;;14.77;69.26;102492.13;4943082;29;20059;-85
2021/06/13 04:26:48;;;;;;;6.33;3.87;;;;;;;14.68;69.33;102482.72;4942252;29;20050;-85
2021/06/13 04:29:14;;;;;;;5.90;3.40;;;;;;;14.73;69.28;102488.69;4942007;29;20102;-84
2021/06/13 04:31:40;;;;;;;5.55;3.45;;;;;;;14.78;69.18;102490.34;4942130;29;20051;-83
2021/06/13 04:34:08;;;;;;;6.03;3.72;;;;;;;14.85;68.99;102497.16;4942133;29;20481;-85
2021/06/13 04:36:34;;;;;;;5.68;3.58;;;;;;;14.94;68.50;102501.28;4941162;29;20511;-83
2021/06/13 04:39:01;;;;;;;6.13;3.70;;;;;;;14.76;68.54;102455.31;4940373;29;20056;-85
2021/06/13 04:41:28;;;;;;;5.45;3.70;;;;;;;14.97;68.44;102498.59;4940180;29;20047;-85
2021/06/13 04:43:54;;;;;;;8.30;3.78;;;;;;;15.00;68.18;102494.09;4939618;29;20094;-84
2021/06/13 04:46:26;;;;;;;6.57;3.42;;;;;;;15.03;68.37;102501.88;4939929;29;20097;-84
2021/06/13 04:48:52;;;;;;;7.90;3.83;;;;;;;15.01;68.66;102511.63;4942040;29;20052;-84
2021/06/13 04:51:20;;;;;;;5.88;3.90;;;;;;;15.10;68.85;102504.34;4944251;29;20047;-84
2021/06/13 04:53:50;;;;;;;6.57;3.92;;;;;;;15.13;68.88;102507.75;4949857;29;20122;-79
2021/06/13 04:56:36;;;;;;;4.90;3.80;;;;;;;15.20;68.38;102521.59;4953037;29;20076;-85
2021/06/13 04:59:03;;;;;;;6.22;4.07;;;;;;;15.93;66.54;102499.28;4930551;29;20075;-84
2021/06/13 05:01:29;;;;;;;7.22;4.00;;;;;;;16.70;64.10;102505.50;4948677;29;20079;-85
2021/06/13 05:03:56;;;;;;;8.05;4.28;;;;;;;17.25;62.57;102508.81;4956408;29;20039;-85
2021/06/13 05:06:23;;;;;;;8.02;4.07;;;;;;;17.26;62.05;102513.19;4956653;29;20051;-85
2021/06/13 05:08:50;;;;;;;8.20;3.95;;;;;;;17.16;62.40;102495.09;4955982;29;20129;-86
2021/06/13 05:11:17;;;;;;;7.65;3.97;;;;;;;17.57;60.98;102490.88;4958499;29;20069;-84
2021/06/13 05:13:44;;;;;;;4.32;3.33;;;;;;;17.84;60.18;102497.78;4955307;29;20055;-86
2021/06/13 05:16:10;;;;;;;8.80;3.63;;;;;;;18.19;59.27;102498.16;4946892;29;20047;-86
2021/06/13 05:18:36;;;;;;;7.45;4.10;;;;;;;18.48;58.13;102514.56;4944568;29;20047;-87
2021/06/13 05:21:03;;;;;;;6.40;3.88;;;;;;;17.97;59.22;102509.59;4939212;29;20052;-87
2021/06/13 05:23:29;;;;;;;6.45;3.95;;;;;;;17.20;61.03;102491.41;4940101;29;20179;-85
2021/06/13 05:25:56;;;;;;;6.93;4.03;;;;;;;16.85;62.54;102481.22;4940305;29;20051;-85
2021/06/13 05:28:23;;;;;;;10.18;4.22;;;;;;;16.81;62.78;102509.50;4940381;29;20055;-85
2021/06/13 05:30:51;;;;;;;5.50;3.80;;;;;;;16.74;63.04;102520.31;4938968;29;20079;-84
2021/06/13 05:33:19;;;;;;;7.05;4.15;;;;;;;16.46;64.00;102519.47;4939937;29;20048;-86
2021/06/13 05:35:48;;;;;;;9.75;4.63;;;;;;;16.38;64.28;102518.03;4940934;29;20098;-86
2021/06/13 05:38:15;;;;;;;6.68;4.03;;;;;;;16.28;64.30;102491.13;4939649;29;20077;-84
2021/06/13 05:40:41;;;;;;;9.45;4.43;;;;;;;16.38;64.34;102508.34;4938555;29;20073;-86
2021/06/13 05:43:10;;;;;;;7.15;4.90;;;;;;;16.58;63.92;102520.00;4938504;29;20055;-86
2021/06/13 05:45:38;;;;;;;8.02;4.72;;;;;;;16.60;63.84;102520.78;4939010;29;20103;-85
2021/06/13 05:48:05;;;;;;;7.47;4.53;;;;;;;16.56;64.14;102517.38;4939950;29;20054;-86
2021/06/13 05:50:32;;;;;;;8.05;4.40;;;;;;;16.65;63.93;102519.72;4939526;29;20052;-85
2021/06/13 05:52:58;;;;;;;8.20;4.13;;;;;;;16.77;63.22;102515.78;4940114;29;20125;-85
2021/06/13 05:55:25;;;;;;;8.30;4.20;;;;;;;16.77;63.30;102522.84;4941579;29;20056;-85
2021/06/13 05:57:52;;;;;;;11.15;4.03;;;;;;;16.92;62.38;102524.97;4941912;29;20373;-85
2021/06/13 06:00:24;;;;;;;4.97;3.58;;;;;;;17.07;60.88;102533.25;4941069;29;20059;-85
2021/06/13 06:02:52;;;;;;;4.22;3.15;;;;;;;17.04;60.56;102528.94;4941506;29;20047;-83
2021/06/13 06:05:22;;;;;;;6.05;3.10;;;;;;;17.23;59.56;102531.75;4940705;29;20412;-85
2021/06/13 06:07:49;;;;;;;6.97;3.47;;;;;;;17.20;59.06;102536.28;4940021;29;20489;-86
2021/06/13 06:10:16;;;;;;;4.55;2.65;;;;;;;17.13;57.89;102539.16;4939845;29;20051;-85
2021/06/13 06:12:43;;;;;;;5.90;2.70;;;;;;;17.09;57.72;102534.91;4939017;29;20067;-85
2021/06/13 06:15:12;;;;;;;4.80;2.33;;;;;;;17.20;57.43;102531.00;4939420;29;20102;-86
2021/06/13 06:17:39;;;;;;;4.68;2.75;;;;;;;17.44;57.39;102535.38;4923236;29;20144;-86
2021/06/13 06:20:07;;;;;;;5.15;2.65;;;;;;;17.51;57.18;102533.38;4940177;29;20052;-84
2021/06/13 06:22:34;;;;;;;4.03;2.10;;;;;;;17.29;56.37;102499.00;4940383;29;20516;-85
2021/06/13 06:25:02;;;;;;;4.88;2.65;;;;;;;17.36;56.66;102523.41;4939110;29;20047;-86
2021/06/13 06:27:28;;;;;;;3.28;2.10;;;;;;;17.25;56.67;102511.44;4949432;29;20061;-82
2021/06/13 06:29:54;;;;;;;3.00;2.00;;;;;;;17.48;56.03;102528.22;4954144;29;20107;-84
2021/06/13 06:32:20;;;;;;;8.23;2.53;;;;;;;17.72;55.83;102533.44;4957177;29;20130;-84
2021/06/13 06:34:46;;;;;;;3.83;1.88;;;;;;;17.83;55.55;102523.31;4942809;28;20055;-84
2021/06/13 06:37:12;;;;;;;4.03;1.92;;;;;;;17.81;55.34;102511.09;4955254;29;20052;-86
2021/06/13 06:39:38;;;;;;;3.88;2.25;;;;;;;17.80;55.43;102519.94;4946514;29;20382;-85
2021/06/13 06:42:06;;;;;;;5.38;1.67;;;;;;;17.84;55.16;102522.41;4947110;29;20047;-84
2021/06/13 06:44:34;;;;;;;3.30;1.90;;;;;;;17.80;55.81;102525.22;4947377;29;20063;-83
2021/06/13 06:47:05;;;;;;;4.82;1.73;;;;;;;17.95;55.45;102510.59;4946781;29;20048;-85
2021/06/13 06:49:34;;;;;;;4.60;1.80;;;;;;;18.21;55.11;102515.66;4945611;29;20055;-85
2021/06/13 06:52:01;;;;;;;3.88;2.08;;;;;;;17.69;54.59;102412.09;4945043;29;20087;-86
2021/06/13 06:54:27;;;;;;;6.00;1.90;;;;;;;18.39;54.36;102510.53;4928128;29;20051;-85
2021/06/13 06:56:56;;;;;;;4.88;1.95;;;;;;;18.22;54.28;102468.94;4945179;29;20048;-85
2021/06/13 06:59:24;;;;;;;4.20;1.90;;;;;;;18.30;54.68;102510.94;4944789;29;20051;-84
2021/06/13 07:01:55;;;;;;;4.20;2.08;;;;;;;18.17;55.20;102505.28;4946635;29;20058;-84
2021/06/13 07:04:22;;;;;;;4.63;2.45;;;;;;;18.34;54.99;102513.34;4947339;29;20408;-85
2021/06/13 07:06:54;;;;;;;3.65;2.15;;;;;;;18.48;54.43;102510.16;4950912;29;20512;-83
2021/06/13 07:09:20;;;;;;;3.88;2.58;;;;;;;18.38;54.68;102491.16;4954158;29;20051;-83
2021/06/13 07:11:55;;;;;;;4.28;2.47;;;;;;;18.67;54.37;102507.53;4957814;29;20079;-80
2021/06/13 07:14:23;;;;;;;4.20;2.70;;;;;;;18.78;53.87;102509.72;4960186;28;20054;-79
2021/06/13 07:16:54;;;;;;;4.55;2.53;;;;;;;18.70;54.06;102512.72;4963462;28;20043;-84
2021/06/13 07:19:20;;;;;;;4.05;2.88;;;;;;;18.88;53.62;102507.53;4961788;28;20036;-85
2021/06/13 07:21:46;;;;;;;3.70;2.67;;;;;;;18.86;53.74;102499.66;4940965;29;20102;-86
2021/06/13 07:24:13;;;;;;;4.75;2.63;;;;;;;18.98;53.92;102516.81;4942224;29;20060;-85
2021/06/13 07:26:40;;;;;;;4.03;2.53;;;;;;;19.10;53.32;102503.94;4943458;29;20051;-85
2021/06/13 07:29:07;;;;;;;5.20;2.78;;;;;;;18.96;53.31;102489.56;4942814;29;20051;-85
2021/06/13 07:31:33;;;;;;;4.75;2.60;;;;;;;19.12;53.30;102504.75;4942931;29;20048;-86
2021/06/13 07:33:59;;;;;;;4.05;2.83;;;;;;;19.26;53.10;102501.47;4942540;29;20075;-85
2021/06/13 07:36:26;;;;;;;4.60;2.70;;;;;;;19.46;52.68;102511.97;4946648;29;20047;-84
2021/06/13 07:38:53;;;;;;;5.78;2.65;;;;;;;19.65;52.55;102519.94;4946845;29;20638;-81
2021/06/13 07:41:23;;;;;;;4.90;2.60;;;;;;;19.69;52.06;102491.50;4948774;29;20130;-79
2021/06/13 07:43:50;;;;;;;5.07;2.22;;;;;;;19.74;52.00;102489.47;4948746;29;20134;-82
2021/06/13 07:46:16;;;;;;;4.88;2.35;;;;;;;19.74;52.34;102501.84;4955033;29;20054;-82
2021/06/13 07:48:42;;;;;;;4.40;2.35;;;;;;;19.78;52.22;102484.88;4950266;29;20055;-85
2021/06/13 07:51:09;;;;;;;5.82;2.60;;;;;;;19.99;51.58;102504.19;4945533;29;20067;-85
2021/06/13 07:53:43;;;;;;;6.78;2.33;;;;;;;20.00;51.56;102495.31;4945008;29;20094;-81
2021/06/13 07:56:15;;;;;;;3.95;2.35;;;;;;;19.99;51.90;102494.47;4946354;29;20056;-85
2021/06/13 07:58:57;;;;;;;3.10;2.22;;;;;;;19.99;51.44;102497.13;4946404;29;20055;-85
2021/06/13 08:01:25;;;;;;;5.38;2.55;;;;;;;20.14;51.06;102481.38;4946902;29;20059;-84
2021/06/13 08:03:52;;;;;;;8.07;2.33;;;;;;;20.23;51.09;102502.13;4946063;29;20052;-79
2021/06/13 08:06:21;;;;;;;4.95;2.33;;;;;;;20.38;50.78;102502.28;4944612;29;20071;-85
2021/06/13 08:08:47;;;;;;;4.38;2.00;;;;;;;20.48;50.93;102504.38;4927854;29;20050;-85
2021/06/13 08:11:13;;;;;;;3.28;2.10;;;;;;;20.73;50.38;102503.13;4942884;29;20513;-86
2021/06/13 08:13:39;;;;;;;4.60;2.50;;;;;;;20.78;50.05;102498.44;4943611;29;20080;-84
2021/06/13 08:16:06;;;;;;;4.68;2.40;;;;;;;20.99;49.69;102506.19;4944000;29;20059;-86
2021/06/13 08:18:34;;;;;;;5.03;2.70;;;;;;;21.10;50.02;102501.19;4927268;29;20087;-86
2021/06/13 08:21:02;;;;;;;4.35;2.13;;;;;;;21.15;49.61;102500.06;4946268;29;20050;-86
2021/06/13 08:23:31;;;;;;;3.47;2.13;;;;;;;21.17;49.40;102482.25;4945555;29;20059;-84
2021/06/13 08:26:01;;;;;;;3.88;2.25;;;;;;;21.28;49.30;102495.78;4943962;29;20051;-85
2021/06/13 08:28:30;;;;;;;6.30;2.53;;;;;;;21.37;49.03;102497.09;4945140;29;20055;-85
2021/06/13 08:30:58;;;;;;;4.32;2.33;;;;;;;21.32;49.00;102491.19;4928342;29;20111;-84
2021/06/13 08:33:24;;;;;;;5.00;2.35;;;;;;;21.41;48.86;102474.69;4926861;29;20508;-84
2021/06/13 08:35:51;;;;;;;3.20;2.20;;;;;;;21.40;49.13;102487.16;4942393;29;20172;-77
2021/06/13 08:38:20;;;;;;;6.00;2.97;;;;;;;21.36;49.64;102482.97;4941942;29;20044;-81
2021/06/13 08:40:48;;;;;;;5.88;2.70;;;;;;;21.40;49.61;102483.66;4943334;29;20417;-78
2021/06/13 08:43:15;;;;;;;3.80;2.60;;;;;;;21.52;49.46;102477.63;4943764;29;20055;-78
2021/06/13 08:45:44;;;;;;;5.90;2.75;;;;;;;21.43;49.43;102471.03;4946065;29;20552;-83
2021/06/13 08:48:13;;;;;;;4.97;2.55;;;;;;;21.62;48.97;102475.34;4928204;29;20047;-76
2021/06/13 08:50:40;;;;;;;3.78;2.50;;;;;;;21.84;48.45;102471.47;4944748;29;20044;-85
2021/06/13 08:53:07;;;;;;;4.88;2.58;;;;;;;21.92;47.96;102463.88;4944547;29;20048;-85
2021/06/13 08:55:33;;;;;;;6.38;2.67;;;;;;;22.01;47.99;102467.81;4941803;29;20406;-85
2021/06/13 08:58:00;;;;;;;8.20;3.42;;;;;;;22.01;47.84;102458.03;4942240;29;20043;-85
2021/06/13 09:00:29;;;;;;;7.93;3.15;;;;;;;21.99;47.82;102453.75;4941537;29;20052;-86
2021/06/13 09:02:56;;;;;;;6.18;3.22;;;;;;;22.14;47.65;102458.16;4941998;29;20063;-85
2021/06/13 09:05:24;;;;;;;4.60;2.72;;;;;;;22.36;47.55;102455.06;4947963;29;20510;-84
2021/06/13 09:07:55;;;;;;;7.60;2.70;;;;;;;22.15;48.05;102454.53;4943017;29;20055;-85
2021/06/13 09:10:30;;;;;;;6.07;3.08;;;;;;;22.28;47.58;102457.34;4928542;29;20058;-87
2021/06/13 09:13:19;;;;;;;7.10;3.00;;;;;;;22.24;47.56;102450.50;4948343;29;20131;-85
2021/06/13 09:16:02;;;;;;;5.60;2.63;;;;;;;22.43;47.44;102452.91;4946979;29;20048;-87
2021/06/13 09:18:39;;;;;;;4.15;2.22;;;;;;;22.57;47.46;102440.56;4948023;29;20146;-85
2021/06/13 09:21:27;;;;;;;7.70;2.97;;;;;;;22.62;47.53;102449.13;4949672;29;20051;-86
2021/06/13 09:23:54;;;;;;;6.55;3.03;;;;;;;22.46;47.57;102441.22;4941194;29;20142;-85
2021/06/13 09:26:25;;;;;;;5.85;2.47;;;;;;;22.68;47.30;102438.13;4936659;29;20059;-86
2021/06/13 09:28:52;;;;;;;6.28;3.10;;;;;;;22.83;47.26;102441.63;4920987;29;20047;-86
2021/06/13 09:31:20;;;;;;;6.45;3.15;;;;;;;22.79;47.33;102443.63;4936967;29;20508;-88
2021/06/13 09:33:49;;;;;;;4.88;2.95;;;;;;;22.76;47.66;102438.47;4937390;29;20055;-86
2021/06/13 09:36:35;;;;;;;4.53;2.95;;;;;;;22.79;47.59;102445.41;4939410;29;20051;-85
2021/06/13 09:39:05;;;;;;;5.95;2.80;;;;;;;22.80;47.53;102431.16;4944200;29;20126;-85
2021/06/13 09:41:37;;;;;;;4.90;2.88;;;;;;;22.82;48.11;102438.09;4955520;29;20063;-84
2021/06/13 09:44:05;;;;;;;6.63;3.17;;;;;;;22.94;47.55;102425.81;4953673;29;20059;-84
2021/06/13 09:46:34;;;;;;;7.00;3.08;;;;;;;23.14;47.34;102429.88;4951520;29;20048;-84
2021/06/13 09:49:07;;;;;;;7.70;3.17;;;;;;;23.12;47.49;102426.44;4958861;29;20066;-82
2021/06/13 09:51:36;;;;;;;6.15;3.00;;;;;;;23.13;47.17;102425.50;4959457;28;20111;-85
2021/06/13 09:54:16;;;;;;;5.72;3.42;;;;;;;23.08;47.46;102424.91;4957523;29;20032;-82
2021/06/13 09:56:43;;;;;;;6.13;3.00;;;;;;;23.30;47.76;102428.91;4948969;29;20051;-84
2021/06/13 09:59:14;;;;;;;6.45;3.10;;;;;;;23.43;47.25;102415.66;4943080;29;20051;-85
2021/06/13 10:01:43;;;;;;;8.38;3.17;;;;;;;23.47;47.01;102423.34;4942836;29;20047;-86
2021/06/13 10:04:18;;;;;;;4.65;3.00;;;;;;;23.61;46.48;102424.25;4941874;29;20390;-85
2021/06/13 10:06:48;;;;;;;7.30;3.55;;;;;;;23.91;46.16;102416.00;4939284;29;20480;-85
2021/06/13 10:09:16;;;;;;;6.78;3.60;;;;;;;23.89;46.35;102412.56;4936710;29;20453;-86
2021/06/13 10:11:44;;;;;;;7.72;3.95;;;;;;;23.62;46.47;102401.94;4939513;29;20130;-86
2021/06/13 10:14:18;;;;;;;4.53;3.28;;;;;;;23.86;46.44;102404.75;4943165;29;20055;-86
2021/06/13 10:17:00;;;;;;;6.78;3.30;;;;;;;23.97;45.98;102399.59;4944068;29;20075;-86
2021/06/13 10:19:28;;;;;;;5.93;3.22;;;;;;;24.17;45.78;102393.84;4942755;29;20051;-85
2021/06/13 10:22:01;;;;;;;7.38;3.70;;;;;;;24.45;45.29;102398.97;4945158;29;20390;-85
2021/06/13 10:24:29;;;;;;;;;;;;;;;24.38;45.17;102402.19;4931111;29;20150;-86
2021/06/13 10:27:01;;;;;;;6.60;3.72;;;;;;;24.41;44.78;102393.94;4948010;29;19966;-87
2021/06/13 10:29:31;;;;;;;6.68;3.20;;;;;;;24.57;44.85;102394.56;4933264;29;20047;-86
2021/06/13 10:32:03;;;;;;;5.45;3.63;;;;;;;24.48;44.47;102389.88;4931868;29;20429;-85
2021/06/13 10:34:30;;;;;;;7.55;3.90;;;;;;;24.45;44.39;102377.59;4952681;29;20056;-86
2021/06/13 10:37:05;;;;;;;5.05;3.17;;;;;;;24.66;44.40;102390.44;4957389;29;20055;-87
2021/06/13 10:39:34;;;;;;;6.68;3.58;;;;;;;24.77;43.47;102392.31;4960942;28;20039;-87
2021/06/13 10:42:01;;;;;;;5.68;3.13;;;;;;;24.71;43.35;102388.28;4956451;29;20103;-87
2021/06/13 10:44:29;;;;;;;5.15;3.20;;;;;;;24.58;43.76;102390.06;4945999;29;20055;-87
2021/06/13 10:47:11;;;;;;;5.78;3.30;;;;;;;24.79;44.35;102385.03;4944278;29;20485;-87
2021/06/13 10:49:40;;;;;;;6.55;3.95;;;;;;;24.95;44.03;102382.13;4944837;29;20044;-86
2021/06/13 10:52:14;;;;;;;7.80;3.58;;;;;;;25.17;43.80;102380.53;4950099;29;20047;-87
2021/06/13 10:54:49;;;;;;;6.07;3.72;;;;;;;25.31;43.51;102383.03;4957444;29;20083;-84
2021/06/13 10:57:15;;;;;;;4.90;3.20;;;;;;;25.26;43.37;102391.38;4945971;29;20485;-86
2021/06/13 10:59:49;;;;;;;4.60;3.50;;;;;;;24.98;44.31;102378.38;4945845;29;20083;-86
2021/06/13 11:02:19;;;;;;;7.40;3.92;;;;;;;24.77;44.85;102370.97;4952085;29;20047;-85
2021/06/13 11:04:50;;;;;;;9.95;3.65;;;;;;;25.03;44.47;102369.03;4958083;29;20056;-86
2021/06/13 11:07:35;;;;;;;5.93;3.15;;;;;;;25.54;43.47;102370.66;4960842;28;20082;-84
2021/06/13 11:10:21;;;;;;;6.25;3.80;;;;;;;25.46;43.34;102370.38;4963107;28;20052;-84
2021/06/13 11:13:03;;;;;;;5.63;3.60;;;;;;;25.28;43.47;102364.56;4957168;29;20052;-87
2021/06/13 11:15:35;;;;;;;7.38;3.47;;;;;;;25.19;44.06;102365.25;4946750;29;20111;-86
2021/06/13 11:18:06;;;;;;;6.50;2.90;;;;;;;25.45;42.70;102357.13;4947200;29;20052;-87
2021/06/13 11:20:49;;;;;;;6.78;3.28;;;;;;;25.62;42.48;102361.19;4946571;29;20067;-87
2021/06/13 11:23:22;;;;;;;6.17;3.03;;;;;;;25.81;41.74;102361.47;4941350;29;20044;-85
2021/06/13 11:25:49;;;;;;;5.40;3.42;;;;;;;25.80;41.74;102350.91;4946833;29;20038;-86
2021/06/13 11:28:20;;;;;;;7.20;3.75;;;;;;;25.90;41.99;102359.91;4953115;29;20054;-84
2021/06/13 11:30:53;;;;;;;6.05;3.17;;;;;;;25.91;42.21;102356.28;4954478;29;20465;-86
2021/06/13 11:33:43;;;;;;;5.97;3.45;;;;;;;25.85;42.16;102356.75;4944825;29;20055;-87
2021/06/13 11:36:22;;;;;;;5.70;3.08;;;;;;;25.79;42.58;102349.19;4946116;29;20048;-86
2021/06/13 11:38:50;;;;;;;4.63;3.22;;;;;;;26.04;42.10;102350.81;4950072;29;20048;-85